sensor_id;sensor_type;location;lat;lon;timestamp;P1;durP1;ratioP1;P2;durP2;ratioP2
2538;SDS011;1280;49.760;9.664;2023-09-19T00:00:44;4.87;;;1.20;;
2538;SDS011;1280;49.760;9.664;2023-09-19T00:03:14;3.90;;;1.10;;
2538;SDS011;1280;49.760;9.664;2023-09-19T00:05:42;4.00;;;1.00;;
2538;SDS011;1280;49.760;9.664;2023-09-19T00:08:12;5.20;;;1.27;;
2538;SDS011;1280;49.760;9.664;2023-09-19T00:10:42;8.20;;;1.10;;
2538;SDS011;1280;49.760;9.664;2023-09-19T00:13:12;5.93;;;1.40;;
2538;SDS011;1280;49.760;9.664;2023-09-19T00:15:43;4.90;;;1.10;;
2538;SDS011;1280;49.760;9.664;2023-09-19T00:18:16;4.90;;;1.23;;
2538;SDS011;1280;49.760;9.664;2023-09-19T00:20:47;4.70;;;1.50;;
2538;SDS011;1280;49.760;9.664;2023-09-19T00:23:15;4.57;;;1.10;;
2538;SDS011;1280;49.760;9.664;2023-09-19T00:25:43;4.10;;;1.07;;
2538;SDS011;1280;49.760;9.664;2023-09-19T00:28:14;5.27;;;1.70;;
2538;SDS011;1280;49.760;9.664;2023-09-19T00:30:43;4.27;;;1.10;;
2538;SDS011;1280;49.760;9.664;2023-09-19T00:33:13;5.50;;;1.30;;
2538;SDS011;1280;49.760;9.664;2023-09-19T00:35:46;6.43;;;1.50;;
2538;SDS011;1280;49.760;9.664;2023-09-19T00:38:15;4.53;;;1.37;;
2538;SDS011;1280;49.760;9.664;2023-09-19T00:40:46;5.00;;;1.60;;
2538;SDS011;1280;49.760;9.664;2023-09-19T00:43:15;5.90;;;1.20;;
2538;SDS011;1280;49.760;9.664;2023-09-19T00:45:44;4.33;;;1.50;;
2538;SDS011;1280;49.760;9.664;2023-09-19T00:48:16;5.20;;;1.50;;
2538;SDS011;1280;49.760;9.664;2023-09-19T00:50:46;4.30;;;1.50;;
2538;SDS011;1280;49.760;9.664;2023-09-19T00:53:17;6.73;;;1.20;;
2538;SDS011;1280;49.760;9.664;2023-09-19T00:55:47;5.80;;;1.57;;
2538;SDS011;1280;49.760;9.664;2023-09-19T00:58:18;6.67;;;1.23;;
2538;SDS011;1280;49.760;9.664;2023-09-19T01:00:47;5.07;;;1.40;;
2538;SDS011;1280;49.760;9.664;2023-09-19T01:03:15;7.43;;;1.73;;
2538;SDS011;1280;49.760;9.664;2023-09-19T01:05:45;4.20;;;1.10;;
2538;SDS011;1280;49.760;9.664;2023-09-19T01:08:14;4.83;;;1.33;;
2538;SDS011;1280;49.760;9.664;2023-09-19T01:10:44;5.57;;;1.67;;
2538;SDS011;1280;49.760;9.664;2023-09-19T01:13:22;3.90;;;1.10;;
2538;SDS011;1280;49.760;9.664;2023-09-19T01:15:59;6.50;;;1.70;;
2538;SDS011;1280;49.760;9.664;2023-09-19T01:18:40;6.57;;;1.53;;
2538;SDS011;1280;49.760;9.664;2023-09-19T01:21:18;6.00;;;1.80;;
2538;SDS011;1280;49.760;9.664;2023-09-19T01:27:06;8.83;;;2.00;;
2538;SDS011;1280;49.760;9.664;2023-09-19T01:30:08;5.20;;;1.43;;
2538;SDS011;1280;49.760;9.664;2023-09-19T01:32:38;4.33;;;1.20;;
2538;SDS011;1280;49.760;9.664;2023-09-19T01:35:07;6.17;;;1.90;;
2538;SDS011;1280;49.760;9.664;2023-09-19T01:37:39;5.37;;;1.77;;
2538;SDS011;1280;49.760;9.664;2023-09-19T01:40:10;5.10;;;1.67;;
2538;SDS011;1280;49.760;9.664;2023-09-19T01:42:44;5.43;;;1.60;;
2538;SDS011;1280;49.760;9.664;2023-09-19T01:45:22;7.87;;;1.70;;
2538;SDS011;1280;49.760;9.664;2023-09-19T01:47:59;6.40;;;1.80;;
2538;SDS011;1280;49.760;9.664;2023-09-19T01:50:38;8.37;;;1.50;;
2538;SDS011;1280;49.760;9.664;2023-09-19T01:53:14;6.03;;;1.70;;
2538;SDS011;1280;49.760;9.664;2023-09-19T01:55:49;9.60;;;2.00;;
2538;SDS011;1280;49.760;9.664;2023-09-19T01:58:20;5.93;;;1.90;;
2538;SDS011;1280;49.760;9.664;2023-09-19T02:00:56;6.90;;;1.70;;
2538;SDS011;1280;49.760;9.664;2023-09-19T02:03:27;6.00;;;2.00;;
2538;SDS011;1280;49.760;9.664;2023-09-19T02:05:56;5.00;;;1.93;;
2538;SDS011;1280;49.760;9.664;2023-09-19T02:08:25;5.93;;;1.77;;
2538;SDS011;1280;49.760;9.664;2023-09-19T02:10:53;4.70;;;1.80;;
2538;SDS011;1280;49.760;9.664;2023-09-19T02:13:22;5.37;;;1.70;;
2538;SDS011;1280;49.760;9.664;2023-09-19T02:15:52;8.40;;;2.50;;
2538;SDS011;1280;49.760;9.664;2023-09-19T02:18:22;7.80;;;1.90;;
2538;SDS011;1280;49.760;9.664;2023-09-19T02:20:50;5.83;;;2.40;;
2538;SDS011;1280;49.760;9.664;2023-09-19T02:23:20;6.47;;;2.10;;
2538;SDS011;1280;49.760;9.664;2023-09-19T02:25:52;4.60;;;1.67;;
2538;SDS011;1280;49.760;9.664;2023-09-19T02:28:20;7.43;;;2.37;;
2538;SDS011;1280;49.760;9.664;2023-09-19T02:30:50;6.23;;;2.17;;
2538;SDS011;1280;49.760;9.664;2023-09-19T02:33:18;6.27;;;2.00;;
2538;SDS011;1280;49.760;9.664;2023-09-19T02:35:47;7.57;;;2.23;;
2538;SDS011;1280;49.760;9.664;2023-09-19T02:38:15;6.00;;;2.07;;
2538;SDS011;1280;49.760;9.664;2023-09-19T02:40:51;5.47;;;2.20;;
2538;SDS011;1280;49.760;9.664;2023-09-19T02:43:19;10.43;;;2.37;;
2538;SDS011;1280;49.760;9.664;2023-09-19T02:45:47;5.40;;;2.27;;
2538;SDS011;1280;49.760;9.664;2023-09-19T02:48:16;7.87;;;2.77;;
2538;SDS011;1280;49.760;9.664;2023-09-19T02:50:46;5.90;;;2.40;;
2538;SDS011;1280;49.760;9.664;2023-09-19T02:53:17;4.90;;;1.90;;
2538;SDS011;1280;49.760;9.664;2023-09-19T02:55:46;6.60;;;2.73;;
2538;SDS011;1280;49.760;9.664;2023-09-19T02:58:14;6.83;;;2.93;;
2538;SDS011;1280;49.760;9.664;2023-09-19T03:00:45;6.70;;;2.50;;
2538;SDS011;1280;49.760;9.664;2023-09-19T03:03:15;6.30;;;2.70;;
2538;SDS011;1280;49.760;9.664;2023-09-19T03:05:43;4.90;;;2.00;;
2538;SDS011;1280;49.760;9.664;2023-09-19T03:08:16;5.70;;;2.40;;
2538;SDS011;1280;49.760;9.664;2023-09-19T03:10:46;6.80;;;2.70;;
2538;SDS011;1280;49.760;9.664;2023-09-19T03:13:15;12.43;;;2.87;;
2538;SDS011;1280;49.760;9.664;2023-09-19T03:15:43;8.23;;;3.00;;
2538;SDS011;1280;49.760;9.664;2023-09-19T03:18:15;8.43;;;2.90;;
2538;SDS011;1280;49.760;9.664;2023-09-19T03:20:43;6.40;;;2.87;;
2538;SDS011;1280;49.760;9.664;2023-09-19T03:23:11;8.03;;;2.87;;
2538;SDS011;1280;49.760;9.664;2023-09-19T03:25:41;7.23;;;2.83;;
2538;SDS011;1280;49.760;9.664;2023-09-19T03:28:09;8.67;;;3.33;;
2538;SDS011;1280;49.760;9.664;2023-09-19T03:30:38;7.60;;;2.33;;
2538;SDS011;1280;49.760;9.664;2023-09-19T03:33:06;6.30;;;2.83;;
2538;SDS011;1280;49.760;9.664;2023-09-19T03:35:39;5.90;;;2.33;;
2538;SDS011;1280;49.760;9.664;2023-09-19T03:38:08;8.80;;;2.83;;
2538;SDS011;1280;49.760;9.664;2023-09-19T03:40:36;5.07;;;2.70;;
2538;SDS011;1280;49.760;9.664;2023-09-19T03:43:06;9.20;;;2.70;;
2538;SDS011;1280;49.760;9.664;2023-09-19T03:45:34;5.63;;;2.37;;
2538;SDS011;1280;49.760;9.664;2023-09-19T03:48:07;6.40;;;2.30;;
2538;SDS011;1280;49.760;9.664;2023-09-19T03:50:36;7.50;;;2.07;;
2538;SDS011;1280;49.760;9.664;2023-09-19T03:53:04;5.87;;;2.27;;
2538;SDS011;1280;49.760;9.664;2023-09-19T03:55:33;6.50;;;2.53;;
2538;SDS011;1280;49.760;9.664;2023-09-19T03:58:02;5.83;;;1.97;;
2538;SDS011;1280;49.760;9.664;2023-09-19T04:00:32;6.20;;;2.30;;
2538;SDS011;1280;49.760;9.664;2023-09-19T04:03:04;5.70;;;2.20;;
2538;SDS011;1280;49.760;9.664;2023-09-19T04:05:35;6.50;;;2.47;;
2538;SDS011;1280;49.760;9.664;2023-09-19T04:08:04;6.00;;;2.13;;
2538;SDS011;1280;49.760;9.664;2023-09-19T04:10:32;6.27;;;2.70;;
2538;SDS011;1280;49.760;9.664;2023-09-19T04:13:00;5.30;;;2.40;;
2538;SDS011;1280;49.760;9.664;2023-09-19T04:15:28;5.70;;;2.13;;
2538;SDS011;1280;49.760;9.664;2023-09-19T04:17:57;6.10;;;2.70;;
2538;SDS011;1280;49.760;9.664;2023-09-19T04:20:27;7.20;;;2.60;;
2538;SDS011;1280;49.760;9.664;2023-09-19T04:22:55;6.30;;;2.40;;
2538;SDS011;1280;49.760;9.664;2023-09-19T04:25:24;4.93;;;2.20;;
2538;SDS011;1280;49.760;9.664;2023-09-19T04:27:54;5.23;;;2.40;;
2538;SDS011;1280;49.760;9.664;2023-09-19T04:30:22;7.87;;;2.13;;
2538;SDS011;1280;49.760;9.664;2023-09-19T04:32:50;7.20;;;2.47;;
2538;SDS011;1280;49.760;9.664;2023-09-19T04:35:21;17.03;;;3.30;;
2538;SDS011;1280;49.760;9.664;2023-09-19T04:37:49;6.83;;;2.00;;
2538;SDS011;1280;49.760;9.664;2023-09-19T04:40:19;5.47;;;2.37;;
2538;SDS011;1280;49.760;9.664;2023-09-19T04:42:52;11.70;;;2.33;;
2538;SDS011;1280;49.760;9.664;2023-09-19T04:45:23;5.30;;;1.90;;
2538;SDS011;1280;49.760;9.664;2023-09-19T04:47:51;5.10;;;2.33;;
2538;SDS011;1280;49.760;9.664;2023-09-19T04:50:22;4.90;;;2.10;;
2538;SDS011;1280;49.760;9.664;2023-09-19T04:52:53;4.70;;;2.20;;
2538;SDS011;1280;49.760;9.664;2023-09-19T04:55:21;6.40;;;2.33;;
2538;SDS011;1280;49.760;9.664;2023-09-19T04:57:50;4.93;;;2.43;;
2538;SDS011;1280;49.760;9.664;2023-09-19T05:00:19;6.47;;;2.70;;
2538;SDS011;1280;49.760;9.664;2023-09-19T05:02:51;5.83;;;2.47;;
2538;SDS011;1280;49.760;9.664;2023-09-19T05:05:21;7.67;;;2.80;;
2538;SDS011;1280;49.760;9.664;2023-09-19T05:07:52;6.90;;;2.77;;
2538;SDS011;1280;49.760;9.664;2023-09-19T05:10:22;6.93;;;2.60;;
2538;SDS011;1280;49.760;9.664;2023-09-19T05:12:52;5.97;;;2.73;;
2538;SDS011;1280;49.760;9.664;2023-09-19T05:15:20;4.97;;;2.50;;
2538;SDS011;1280;49.760;9.664;2023-09-19T05:17:55;5.10;;;2.47;;
2538;SDS011;1280;49.760;9.664;2023-09-19T05:20:25;5.83;;;2.60;;
2538;SDS011;1280;49.760;9.664;2023-09-19T05:22:59;5.70;;;2.83;;
2538;SDS011;1280;49.760;9.664;2023-09-19T05:25:28;8.63;;;3.07;;
2538;SDS011;1280;49.760;9.664;2023-09-19T05:27:57;5.17;;;2.43;;
2538;SDS011;1280;49.760;9.664;2023-09-19T05:30:25;5.20;;;2.90;;
2538;SDS011;1280;49.760;9.664;2023-09-19T05:32:55;11.73;;;3.00;;
2538;SDS011;1280;49.760;9.664;2023-09-19T05:35:25;8.70;;;3.17;;
2538;SDS011;1280;49.760;9.664;2023-09-19T05:37:53;6.17;;;2.63;;
2538;SDS011;1280;49.760;9.664;2023-09-19T05:40:22;8.90;;;3.20;;
2538;SDS011;1280;49.760;9.664;2023-09-19T05:42:50;8.07;;;3.13;;
2538;SDS011;1280;49.760;9.664;2023-09-19T05:45:19;8.13;;;3.80;;
2538;SDS011;1280;49.760;9.664;2023-09-19T05:47:49;10.43;;;2.87;;
2538;SDS011;1280;49.760;9.664;2023-09-19T05:50:17;6.50;;;3.10;;
2538;SDS011;1280;49.760;9.664;2023-09-19T05:52:52;8.20;;;3.23;;
2538;SDS011;1280;49.760;9.664;2023-09-19T05:55:22;7.77;;;3.70;;
2538;SDS011;1280;49.760;9.664;2023-09-19T05:57:52;6.97;;;3.73;;
2538;SDS011;1280;49.760;9.664;2023-09-19T06:00:20;6.33;;;3.60;;
2538;SDS011;1280;49.760;9.664;2023-09-19T06:02:51;6.60;;;3.60;;
2538;SDS011;1280;49.760;9.664;2023-09-19T06:05:19;8.03;;;3.60;;
2538;SDS011;1280;49.760;9.664;2023-09-19T06:07:48;10.43;;;3.57;;
2538;SDS011;1280;49.760;9.664;2023-09-19T06:10:19;6.37;;;3.40;;
2538;SDS011;1280;49.760;9.664;2023-09-19T06:12:49;8.23;;;3.60;;
2538;SDS011;1280;49.760;9.664;2023-09-19T06:15:17;7.93;;;3.67;;
2538;SDS011;1280;49.760;9.664;2023-09-19T06:17:47;6.50;;;3.73;;
2538;SDS011;1280;49.760;9.664;2023-09-19T06:20:16;5.90;;;3.40;;
2538;SDS011;1280;49.760;9.664;2023-09-19T06:22:47;8.33;;;4.03;;
2538;SDS011;1280;49.760;9.664;2023-09-19T06:25:16;6.57;;;4.30;;
2538;SDS011;1280;49.760;9.664;2023-09-19T06:27:48;7.07;;;4.00;;
2538;SDS011;1280;49.760;9.664;2023-09-19T06:30:18;7.70;;;4.10;;
2538;SDS011;1280;49.760;9.664;2023-09-19T06:32:47;6.13;;;3.80;;
2538;SDS011;1280;49.760;9.664;2023-09-19T06:35:16;9.57;;;4.47;;
2538;SDS011;1280;49.760;9.664;2023-09-19T06:37:44;6.63;;;3.90;;
2538;SDS011;1280;49.760;9.664;2023-09-19T06:40:12;9.67;;;3.83;;
2538;SDS011;1280;49.760;9.664;2023-09-19T06:42:42;7.53;;;3.90;;
2538;SDS011;1280;49.760;9.664;2023-09-19T06:45:13;9.63;;;3.67;;
2538;SDS011;1280;49.760;9.664;2023-09-19T06:47:45;10.93;;;4.40;;
2538;SDS011;1280;49.760;9.664;2023-09-19T06:50:16;8.30;;;3.63;;
2538;SDS011;1280;49.760;9.664;2023-09-19T06:52:46;7.60;;;4.03;;
2538;SDS011;1280;49.760;9.664;2023-09-19T06:55:16;7.67;;;3.70;;
2538;SDS011;1280;49.760;9.664;2023-09-19T06:57:46;6.90;;;3.47;;
2538;SDS011;1280;49.760;9.664;2023-09-19T07:00:16;8.63;;;3.90;;
2538;SDS011;1280;49.760;9.664;2023-09-19T07:02:45;9.50;;;3.80;;
2538;SDS011;1280;49.760;9.664;2023-09-19T07:05:22;8.30;;;3.87;;
2538;SDS011;1280;49.760;9.664;2023-09-19T07:07:51;7.10;;;3.37;;
2538;SDS011;1280;49.760;9.664;2023-09-19T07:10:21;6.90;;;3.53;;
2538;SDS011;1280;49.760;9.664;2023-09-19T07:12:54;6.50;;;3.47;;
2538;SDS011;1280;49.760;9.664;2023-09-19T07:15:24;8.23;;;3.70;;
2538;SDS011;1280;49.760;9.664;2023-09-19T07:17:53;8.70;;;4.30;;
2538;SDS011;1280;49.760;9.664;2023-09-19T07:20:23;5.77;;;2.90;;
2538;SDS011;1280;49.760;9.664;2023-09-19T07:22:53;8.43;;;4.23;;
2538;SDS011;1280;49.760;9.664;2023-09-19T07:25:22;7.93;;;3.90;;
2538;SDS011;1280;49.760;9.664;2023-09-19T07:27:51;8.73;;;3.70;;
2538;SDS011;1280;49.760;9.664;2023-09-19T07:30:21;7.60;;;3.20;;
2538;SDS011;1280;49.760;9.664;2023-09-19T07:32:50;9.83;;;4.13;;
2538;SDS011;1280;49.760;9.664;2023-09-19T07:35:20;6.10;;;3.30;;
2538;SDS011;1280;49.760;9.664;2023-09-19T07:37:48;6.47;;;3.70;;
2538;SDS011;1280;49.760;9.664;2023-09-19T07:40:18;8.00;;;3.17;;
2538;SDS011;1280;49.760;9.664;2023-09-19T07:42:47;8.30;;;4.13;;
2538;SDS011;1280;49.760;9.664;2023-09-19T07:45:16;8.33;;;3.30;;
2538;SDS011;1280;49.760;9.664;2023-09-19T07:47:45;8.40;;;3.57;;
2538;SDS011;1280;49.760;9.664;2023-09-19T07:50:15;9.93;;;4.20;;
2538;SDS011;1280;49.760;9.664;2023-09-19T07:52:44;6.83;;;2.80;;
2538;SDS011;1280;49.760;9.664;2023-09-19T07:55:13;13.37;;;3.40;;
2538;SDS011;1280;49.760;9.664;2023-09-19T07:57:43;6.60;;;3.20;;
2538;SDS011;1280;49.760;9.664;2023-09-19T08:00:12;8.73;;;3.43;;
2538;SDS011;1280;49.760;9.664;2023-09-19T08:02:41;7.83;;;3.53;;
2538;SDS011;1280;49.760;9.664;2023-09-19T08:05:11;11.40;;;4.03;;
2538;SDS011;1280;49.760;9.664;2023-09-19T08:07:45;8.47;;;3.43;;
2538;SDS011;1280;49.760;9.664;2023-09-19T08:10:15;7.43;;;2.90;;
2538;SDS011;1280;49.760;9.664;2023-09-19T08:12:46;10.40;;;2.93;;
2538;SDS011;1280;49.760;9.664;2023-09-19T08:15:16;8.27;;;2.63;;
2538;SDS011;1280;49.760;9.664;2023-09-19T08:17:46;14.13;;;3.13;;
2538;SDS011;1280;49.760;9.664;2023-09-19T08:20:15;9.47;;;3.37;;
2538;SDS011;1280;49.760;9.664;2023-09-19T08:22:48;8.50;;;3.00;;
2538;SDS011;1280;49.760;9.664;2023-09-19T08:25:18;7.43;;;2.60;;
2538;SDS011;1280;49.760;9.664;2023-09-19T08:27:47;7.80;;;2.60;;
2538;SDS011;1280;49.760;9.664;2023-09-19T08:30:17;8.93;;;2.60;;
2538;SDS011;1280;49.760;9.664;2023-09-19T08:32:51;8.77;;;2.93;;
2538;SDS011;1280;49.760;9.664;2023-09-19T08:35:24;8.47;;;2.40;;
2538;SDS011;1280;49.760;9.664;2023-09-19T08:37:54;10.27;;;2.40;;
2538;SDS011;1280;49.760;9.664;2023-09-19T08:40:23;5.83;;;2.03;;
2538;SDS011;1280;49.760;9.664;2023-09-19T08:42:57;9.47;;;2.30;;
2538;SDS011;1280;49.760;9.664;2023-09-19T08:45:25;6.73;;;2.47;;
2538;SDS011;1280;49.760;9.664;2023-09-19T08:47:56;6.87;;;2.20;;
2538;SDS011;1280;49.760;9.664;2023-09-19T08:50:36;6.10;;;1.97;;
2538;SDS011;1280;49.760;9.664;2023-09-19T08:53:11;6.97;;;2.23;;
2538;SDS011;1280;49.760;9.664;2023-09-19T08:55:46;7.50;;;1.97;;
2538;SDS011;1280;49.760;9.664;2023-09-19T08:58:20;8.60;;;1.80;;
2538;SDS011;1280;49.760;9.664;2023-09-19T09:00:52;8.20;;;2.40;;
2538;SDS011;1280;49.760;9.664;2023-09-19T09:03:21;5.27;;;1.97;;
2538;SDS011;1280;49.760;9.664;2023-09-19T09:05:50;6.27;;;2.40;;
2538;SDS011;1280;49.760;9.664;2023-09-19T09:08:20;8.70;;;2.20;;
2538;SDS011;1280;49.760;9.664;2023-09-19T09:10:49;5.23;;;1.97;;
2538;SDS011;1280;49.760;9.664;2023-09-19T09:13:18;8.80;;;2.37;;
2538;SDS011;1280;49.760;9.664;2023-09-19T09:15:48;6.33;;;2.00;;
2538;SDS011;1280;49.760;9.664;2023-09-19T09:18:16;5.50;;;2.50;;
2538;SDS011;1280;49.760;9.664;2023-09-19T09:20:45;6.60;;;2.50;;
2538;SDS011;1280;49.760;9.664;2023-09-19T09:23:14;5.37;;;2.27;;
2538;SDS011;1280;49.760;9.664;2023-09-19T09:25:50;10.40;;;2.57;;
2538;SDS011;1280;49.760;9.664;2023-09-19T09:28:23;10.20;;;2.93;;
2538;SDS011;1280;49.760;9.664;2023-09-19T09:30:53;8.57;;;2.80;;
2538;SDS011;1280;49.760;9.664;2023-09-19T09:33:22;5.30;;;2.07;;
2538;SDS011;1280;49.760;9.664;2023-09-19T09:35:51;6.13;;;2.27;;
2538;SDS011;1280;49.760;9.664;2023-09-19T09:38:24;7.70;;;2.67;;
2538;SDS011;1280;49.760;9.664;2023-09-19T09:40:55;6.10;;;2.27;;
2538;SDS011;1280;49.760;9.664;2023-09-19T09:43:31;7.10;;;2.67;;
2538;SDS011;1280;49.760;9.664;2023-09-19T09:49:06;6.00;;;2.40;;
2538;SDS011;1280;49.760;9.664;2023-09-19T09:52:01;5.93;;;2.70;;
2538;SDS011;1280;49.760;9.664;2023-09-19T09:54:36;6.77;;;3.10;;
2538;SDS011;1280;49.760;9.664;2023-09-19T09:57:07;6.47;;;2.63;;
2538;SDS011;1280;49.760;9.664;2023-09-19T09:59:44;7.67;;;2.80;;
2538;SDS011;1280;49.760;9.664;2023-09-19T10:02:14;9.10;;;2.90;;
2538;SDS011;1280;49.760;9.664;2023-09-19T10:04:47;6.53;;;3.07;;
2538;SDS011;1280;49.760;9.664;2023-09-19T10:07:40;7.10;;;2.50;;
2538;SDS011;1280;49.760;9.664;2023-09-19T10:10:19;8.10;;;2.23;;
2538;SDS011;1280;49.760;9.664;2023-09-19T10:13:06;7.30;;;2.50;;
2538;SDS011;1280;49.760;9.664;2023-09-19T10:15:38;8.57;;;2.90;;
2538;SDS011;1280;49.760;9.664;2023-09-19T10:18:10;8.00;;;2.70;;
2538;SDS011;1280;49.760;9.664;2023-09-19T10:20:44;8.53;;;2.73;;
2538;SDS011;1280;49.760;9.664;2023-09-19T10:23:16;6.70;;;2.83;;
2538;SDS011;1280;49.760;9.664;2023-09-19T10:25:49;6.30;;;2.43;;
2538;SDS011;1280;49.760;9.664;2023-09-19T10:28:23;6.30;;;2.37;;
2538;SDS011;1280;49.760;9.664;2023-09-19T10:30:55;5.50;;;2.60;;
2538;SDS011;1280;49.760;9.664;2023-09-19T10:33:24;6.80;;;3.13;;
2538;SDS011;1280;49.760;9.664;2023-09-19T10:35:53;6.30;;;2.27;;
2538;SDS011;1280;49.760;9.664;2023-09-19T10:38:23;7.10;;;2.73;;
2538;SDS011;1280;49.760;9.664;2023-09-19T10:40:55;7.77;;;2.60;;
2538;SDS011;1280;49.760;9.664;2023-09-19T10:43:30;5.30;;;2.30;;
2538;SDS011;1280;49.760;9.664;2023-09-19T10:46:02;5.83;;;2.50;;
2538;SDS011;1280;49.760;9.664;2023-09-19T10:48:35;7.80;;;2.83;;
2538;SDS011;1280;49.760;9.664;2023-09-19T10:51:06;7.90;;;2.70;;
2538;SDS011;1280;49.760;9.664;2023-09-19T10:53:43;6.73;;;2.57;;
2538;SDS011;1280;49.760;9.664;2023-09-19T10:56:18;6.60;;;2.90;;
2538;SDS011;1280;49.760;9.664;2023-09-19T10:58:52;10.97;;;2.87;;
2538;SDS011;1280;49.760;9.664;2023-09-19T11:01:42;12.77;;;2.63;;
2538;SDS011;1280;49.760;9.664;2023-09-19T11:04:21;6.00;;;2.80;;
2538;SDS011;1280;49.760;9.664;2023-09-19T11:07:01;6.90;;;2.90;;
2538;SDS011;1280;49.760;9.664;2023-09-19T11:09:46;7.43;;;2.53;;
2538;SDS011;1280;49.760;9.664;2023-09-19T11:21:41;7.43;;;3.00;;
2538;SDS011;1280;49.760;9.664;2023-09-19T11:24:27;8.27;;;3.13;;
2538;SDS011;1280;49.760;9.664;2023-09-19T11:27:10;6.70;;;3.07;;
2538;SDS011;1280;49.760;9.664;2023-09-19T11:29:40;6.77;;;3.00;;
2538;SDS011;1280;49.760;9.664;2023-09-19T11:32:09;7.47;;;2.80;;
2538;SDS011;1280;49.760;9.664;2023-09-19T11:34:39;7.33;;;2.47;;
2538;SDS011;1280;49.760;9.664;2023-09-19T11:40:37;6.63;;;2.63;;
2538;SDS011;1280;49.760;9.664;2023-09-19T11:46:06;7.13;;;2.63;;
2538;SDS011;1280;49.760;9.664;2023-09-19T11:48:34;6.93;;;2.70;;
2538;SDS011;1280;49.760;9.664;2023-09-19T11:51:16;9.07;;;2.50;;
2538;SDS011;1280;49.760;9.664;2023-09-19T11:53:54;5.53;;;1.90;;
2538;SDS011;1280;49.760;9.664;2023-09-19T11:56:23;6.87;;;2.43;;
2538;SDS011;1280;49.760;9.664;2023-09-19T11:58:55;6.30;;;2.10;;
2538;SDS011;1280;49.760;9.664;2023-09-19T12:01:32;7.50;;;2.40;;
2538;SDS011;1280;49.760;9.664;2023-09-19T12:04:02;6.47;;;2.20;;
2538;SDS011;1280;49.760;9.664;2023-09-19T12:06:33;9.47;;;2.10;;
2538;SDS011;1280;49.760;9.664;2023-09-19T12:09:03;7.20;;;2.10;;
2538;SDS011;1280;49.760;9.664;2023-09-19T12:11:40;6.80;;;1.90;;
2538;SDS011;1280;49.760;9.664;2023-09-19T12:14:10;5.13;;;1.80;;
2538;SDS011;1280;49.760;9.664;2023-09-19T12:16:41;6.70;;;2.40;;
2538;SDS011;1280;49.760;9.664;2023-09-19T12:19:22;5.70;;;2.27;;
2538;SDS011;1280;49.760;9.664;2023-09-19T12:21:55;8.73;;;2.30;;
2538;SDS011;1280;49.760;9.664;2023-09-19T12:24:26;5.50;;;2.20;;
2538;SDS011;1280;49.760;9.664;2023-09-19T12:27:00;7.50;;;2.30;;
2538;SDS011;1280;49.760;9.664;2023-09-19T12:29:32;5.50;;;1.73;;
2538;SDS011;1280;49.760;9.664;2023-09-19T12:32:08;8.37;;;2.60;;
2538;SDS011;1280;49.760;9.664;2023-09-19T12:34:37;8.90;;;1.83;;
2538;SDS011;1280;49.760;9.664;2023-09-19T12:37:11;6.10;;;2.07;;
2538;SDS011;1280;49.760;9.664;2023-09-19T12:39:42;7.80;;;2.17;;
2538;SDS011;1280;49.760;9.664;2023-09-19T12:42:16;5.60;;;1.70;;
2538;SDS011;1280;49.760;9.664;2023-09-19T12:44:45;6.53;;;2.00;;
2538;SDS011;1280;49.760;9.664;2023-09-19T12:47:14;7.50;;;1.63;;
2538;SDS011;1280;49.760;9.664;2023-09-19T12:50:05;5.47;;;1.63;;
2538;SDS011;1280;49.760;9.664;2023-09-19T12:52:36;4.30;;;1.37;;
2538;SDS011;1280;49.760;9.664;2023-09-19T12:55:05;6.57;;;1.77;;
2538;SDS011;1280;49.760;9.664;2023-09-19T12:57:33;7.20;;;1.77;;
2538;SDS011;1280;49.760;9.664;2023-09-19T13:00:02;8.93;;;1.77;;
2538;SDS011;1280;49.760;9.664;2023-09-19T13:02:32;5.50;;;1.60;;
2538;SDS011;1280;49.760;9.664;2023-09-19T13:05:00;7.50;;;1.77;;
2538;SDS011;1280;49.760;9.664;2023-09-19T13:07:40;5.63;;;1.93;;
2538;SDS011;1280;49.760;9.664;2023-09-19T13:10:13;5.60;;;2.00;;
2538;SDS011;1280;49.760;9.664;2023-09-19T13:12:43;8.77;;;2.17;;
2538;SDS011;1280;49.760;9.664;2023-09-19T13:15:14;5.60;;;1.53;;
2538;SDS011;1280;49.760;9.664;2023-09-19T13:17:46;5.77;;;1.73;;
2538;SDS011;1280;49.760;9.664;2023-09-19T13:20:22;5.73;;;1.93;;
2538;SDS011;1280;49.760;9.664;2023-09-19T13:22:55;7.80;;;1.70;;
2538;SDS011;1280;49.760;9.664;2023-09-19T13:25:26;5.43;;;1.40;;
2538;SDS011;1280;49.760;9.664;2023-09-19T13:27:56;9.03;;;2.40;;
2538;SDS011;1280;49.760;9.664;2023-09-19T13:30:26;7.93;;;2.17;;
2538;SDS011;1280;49.760;9.664;2023-09-19T13:33:04;7.13;;;2.00;;
2538;SDS011;1280;49.760;9.664;2023-09-19T13:35:33;5.30;;;1.60;;
2538;SDS011;1280;49.760;9.664;2023-09-19T13:38:03;10.03;;;2.00;;
2538;SDS011;1280;49.760;9.664;2023-09-19T13:40:33;6.20;;;2.00;;
2538;SDS011;1280;49.760;9.664;2023-09-19T13:43:01;10.20;;;2.43;;
2538;SDS011;1280;49.760;9.664;2023-09-19T13:45:29;9.00;;;1.80;;
2538;SDS011;1280;49.760;9.664;2023-09-19T13:47:58;7.00;;;1.70;;
2538;SDS011;1280;49.760;9.664;2023-09-19T13:50:26;5.40;;;1.97;;
2538;SDS011;1280;49.760;9.664;2023-09-19T13:52:55;5.40;;;1.73;;
2538;SDS011;1280;49.760;9.664;2023-09-19T13:55:25;6.83;;;1.83;;
2538;SDS011;1280;49.760;9.664;2023-09-19T13:57:54;5.50;;;2.00;;
2538;SDS011;1280;49.760;9.664;2023-09-19T14:00:22;6.43;;;1.60;;
2538;SDS011;1280;49.760;9.664;2023-09-19T14:02:51;7.63;;;2.20;;
2538;SDS011;1280;49.760;9.664;2023-09-19T14:05:19;8.73;;;2.00;;
2538;SDS011;1280;49.760;9.664;2023-09-19T14:07:47;7.47;;;1.90;;
2538;SDS011;1280;49.760;9.664;2023-09-19T14:10:16;7.10;;;2.27;;
2538;SDS011;1280;49.760;9.664;2023-09-19T14:12:46;6.33;;;2.70;;
2538;SDS011;1280;49.760;9.664;2023-09-19T14:15:15;6.13;;;1.70;;
2538;SDS011;1280;49.760;9.664;2023-09-19T14:17:43;6.40;;;1.90;;
2538;SDS011;1280;49.760;9.664;2023-09-19T14:20:12;6.73;;;1.97;;
2538;SDS011;1280;49.760;9.664;2023-09-19T14:22:41;6.63;;;1.97;;
2538;SDS011;1280;49.760;9.664;2023-09-19T14:25:09;6.83;;;1.70;;
2538;SDS011;1280;49.760;9.664;2023-09-19T14:27:37;4.87;;;1.93;;
2538;SDS011;1280;49.760;9.664;2023-09-19T14:30:08;7.03;;;1.63;;
2538;SDS011;1280;49.760;9.664;2023-09-19T14:32:36;5.70;;;1.70;;
2538;SDS011;1280;49.760;9.664;2023-09-19T14:35:06;8.77;;;1.97;;
2538;SDS011;1280;49.760;9.664;2023-09-19T14:37:38;5.40;;;1.80;;
2538;SDS011;1280;49.760;9.664;2023-09-19T14:40:07;7.90;;;1.77;;
2538;SDS011;1280;49.760;9.664;2023-09-19T14:42:38;6.30;;;1.77;;
2538;SDS011;1280;49.760;9.664;2023-09-19T14:45:09;4.83;;;1.53;;
2538;SDS011;1280;49.760;9.664;2023-09-19T14:47:37;5.83;;;1.60;;
2538;SDS011;1280;49.760;9.664;2023-09-19T14:50:06;6.03;;;1.50;;
2538;SDS011;1280;49.760;9.664;2023-09-19T14:52:35;6.60;;;1.93;;
2538;SDS011;1280;49.760;9.664;2023-09-19T14:55:03;6.70;;;1.67;;
2538;SDS011;1280;49.760;9.664;2023-09-19T14:57:32;5.40;;;1.70;;
2538;SDS011;1280;49.760;9.664;2023-09-19T15:00:00;6.57;;;1.67;;
2538;SDS011;1280;49.760;9.664;2023-09-19T15:02:33;6.37;;;1.80;;
2538;SDS011;1280;49.760;9.664;2023-09-19T15:05:02;8.37;;;2.33;;
2538;SDS011;1280;49.760;9.664;2023-09-19T15:07:33;6.10;;;1.80;;
2538;SDS011;1280;49.760;9.664;2023-09-19T15:10:03;7.63;;;2.37;;
2538;SDS011;1280;49.760;9.664;2023-09-19T15:12:33;5.50;;;1.60;;
2538;SDS011;1280;49.760;9.664;2023-09-19T15:15:01;5.93;;;1.90;;
2538;SDS011;1280;49.760;9.664;2023-09-19T15:17:33;7.17;;;1.97;;
2538;SDS011;1280;49.760;9.664;2023-09-19T15:20:01;5.17;;;1.60;;
2538;SDS011;1280;49.760;9.664;2023-09-19T15:22:33;7.23;;;1.80;;
2538;SDS011;1280;49.760;9.664;2023-09-19T15:25:03;6.03;;;1.43;;
2538;SDS011;1280;49.760;9.664;2023-09-19T15:27:32;7.53;;;1.50;;
2538;SDS011;1280;49.760;9.664;2023-09-19T15:32:33;6.20;;;1.90;;
2538;SDS011;1280;49.760;9.664;2023-09-19T15:35:01;8.47;;;1.90;;
2538;SDS011;1280;49.760;9.664;2023-09-19T15:37:29;6.60;;;1.77;;
2538;SDS011;1280;49.760;9.664;2023-09-19T15:39:57;6.33;;;1.47;;
2538;SDS011;1280;49.760;9.664;2023-09-19T15:42:25;7.60;;;2.13;;
2538;SDS011;1280;49.760;9.664;2023-09-19T15:44:53;5.60;;;1.80;;
2538;SDS011;1280;49.760;9.664;2023-09-19T15:47:22;6.40;;;2.00;;
2538;SDS011;1280;49.760;9.664;2023-09-19T15:49:51;9.50;;;1.80;;
2538;SDS011;1280;49.760;9.664;2023-09-19T15:52:19;6.43;;;2.10;;
2538;SDS011;1280;49.760;9.664;2023-09-19T15:54:47;8.13;;;2.10;;
2538;SDS011;1280;49.760;9.664;2023-09-19T15:57:18;6.20;;;2.00;;
2538;SDS011;1280;49.760;9.664;2023-09-19T15:59:48;6.00;;;1.53;;
2538;SDS011;1280;49.760;9.664;2023-09-19T16:02:17;6.07;;;2.10;;